Time;durP1;ratioP1;P1;durP2;ratioP2;P2;SDS_P1;SDS_P2;PMS_P1;PMS_P2;Temp;Humidity;BMP_temperature;BMP_pressure;BME280_temperature;BME280_humidity;BME280_pressure;Samples;Min_cycle;Max_cycle;Signal;HPM_P1;HPM_P2
2021/03/29 00:01:19;;;;;;;17.35;3.70;;;9.30;99.90;;;;;;5055131;28;20045;-78
2021/03/29 00:23:54;;;;;;;;;;;;;;;;;;;;;
2021/03/29 00:27:33;;;;;;;9.75;2.65;;;8.80;99.90;;;;;;4894039;29;20106;-77
2021/03/29 00:30:16;;;;;;;13.27;3.30;;;9.20;99.90;;;;;;4920816;29;20047;-77
2021/03/29 00:36:52;;;;;;;9.15;2.35;;;9.20;99.90;;;;;;4932723;29;20042;-77
2021/03/29 00:46:41;;;;;;;13.48;2.58;;;9.10;99.90;;;;;;4943992;28;20097;-75
2021/03/29 00:49:08;;;;;;;12.18;2.65;;;9.70;99.90;;;;;;5024794;28;20053;-75
2021/03/29 00:51:36;;;;;;;15.45;2.88;;;9.60;99.90;;;;;;5033180;28;20405;-75
2021/03/29 01:28:28;;;;;;;;;;;;;;;;;;;;;
2021/03/29 01:32:19;;;;;;;9.63;3.20;;;9.40;99.70;;;;;;4945964;28;20054;-77
2021/03/29 01:39:41;;;;;;;;;;;;;;;;;;;;;
2021/03/29 01:42:26;;;;;;;11.38;3.03;;;9.30;99.50;;;;;;5012796;28;20049;-77
2021/03/29 01:44:53;;;;;;;12.98;2.90;;;9.50;99.90;;;;;;4993950;28;20186;-75
2021/03/29 01:47:20;;;;;;;9.63;2.97;;;10.30;99.90;;;;;;4997932;28;20117;-76
2021/03/29 01:49:46;;;;;;;9.73;2.55;;;10.20;99.90;;;;;;5073513;28;20079;-76
2021/03/29 01:52:12;;;;;;;13.15;3.53;;;9.60;99.90;;;;;;5074992;28;20400;-76
2021/03/29 01:54:38;;;;;;;10.38;3.10;;;10.20;99.90;;;;;;5073605;28;20032;-74
2021/03/29 01:57:11;;;;;;;10.13;2.70;;;9.60;99.90;;;;;;5064376;28;20040;-78
2021/03/29 01:59:38;;;;;;;12.45;2.80;;;9.60;99.80;;;;;;5057056;28;20029;-79
2021/03/29 02:02:06;;;;;;;10.60;3.03;;;9.60;99.80;;;;;;5074935;28;20041;-79
2021/03/29 02:04:32;;;;;;;10.90;3.13;;;9.60;99.90;;;;;;5074744;28;20071;-79
2021/03/29 02:07:01;;;;;;;12.20;3.15;;;9.90;99.90;;;;;;5057322;28;20445;-79
2021/03/29 02:09:28;;;;;;;8.95;3.22;;;9.60;99.80;;;;;;5054962;28;20043;-79
2021/03/29 02:11:54;;;;;;;11.68;2.88;;;9.60;99.70;;;;;;5073893;28;20041;-79
2021/03/29 02:14:23;;;;;;;11.02;2.90;;;9.60;99.70;;;;;;5074572;28;20119;-79
2021/03/29 02:16:49;;;;;;;9.25;2.85;;;9.60;99.70;;;;;;5074624;28;20040;-79
2021/03/29 02:19:16;;;;;;;9.27;2.80;;;9.60;99.60;;;;;;5075069;28;20044;-78
2021/03/29 02:21:43;;;;;;;11.00;2.70;;;10.20;99.80;;;;;;5074535;28;20028;-79
2021/03/29 02:24:11;;;;;;;11.70;2.75;;;9.60;99.70;;;;;;5074520;28;20083;-79
2021/03/29 02:26:40;;;;;;;11.32;3.17;;;9.60;99.60;;;;;;5056656;28;20075;-79
2021/03/29 02:29:07;;;;;;;11.43;3.05;;;10.00;99.70;;;;;;5068137;28;20106;-78
2021/03/29 02:31:33;;;;;;;16.27;3.50;;;9.70;99.60;;;;;;5074082;28;20037;-78
2021/03/29 02:34:01;;;;;;;12.52;3.10;;;10.10;99.80;;;;;;5074047;28;20400;-78
2021/03/29 02:36:27;;;;;;;23.70;3.97;;;9.70;99.70;;;;;;5074255;28;20060;-78
2021/03/29 02:38:53;;;;;;;10.30;3.63;;;9.70;99.80;;;;;;5073917;28;20495;-78
2021/03/29 02:41:29;;;;;;;15.05;2.67;;;9.70;99.90;;;;;;5056340;28;20099;-78
2021/03/29 02:43:56;;;;;;;11.27;3.05;;;9.70;99.90;;;;;;5072842;28;20477;-79
2021/03/29 02:46:26;;;;;;;16.88;3.10;;;9.60;99.90;;;;;;5074235;28;20485;-79
2021/03/29 02:48:55;;;;;;;12.68;3.08;;;9.60;99.90;;;;;;5076097;28;20150;-79
2021/03/29 02:51:34;;;;;;;10.95;2.83;;;9.60;99.80;;;;;;5077478;28;20036;-79
2021/03/29 02:54:05;;;;;;;11.95;3.65;;;9.60;99.90;;;;;;5060747;28;20045;-79
2021/03/29 02:56:39;;;;;;;13.63;3.63;;;9.60;99.80;;;;;;5077574;28;20028;-79
2021/03/29 02:59:17;;;;;;;10.70;3.15;;;9.60;99.90;;;;;;5066415;28;20090;-79
2021/03/29 03:01:44;;;;;;;10.13;2.75;;;9.60;99.90;;;;;;5084797;28;20063;-79
2021/03/29 03:04:14;;;;;;;9.60;3.03;;;9.50;99.90;;;;;;5089145;28;20036;-79
2021/03/29 03:06:40;;;;;;;17.02;4.05;;;9.50;99.90;;;;;;5075795;28;20050;-79
2021/03/29 03:09:09;;;;;;;12.43;3.05;;;9.50;99.90;;;;;;5093554;28;20036;-79
2021/03/29 03:11:36;;;;;;;14.27;2.93;;;9.50;99.90;;;;;;5075993;28;20039;-79
2021/03/29 03:14:07;;;;;;;15.45;3.38;;;9.70;99.90;;;;;;5075644;28;20120;-80
2021/03/29 03:16:36;;;;;;;15.77;3.25;;;9.50;99.90;;;;;;5075643;28;20399;-79
2021/03/29 03:19:03;;;;;;;10.40;3.35;;;9.50;99.90;;;;;;5068012;28;20182;-79
2021/03/29 03:21:32;;;;;;;13.20;3.20;;;9.50;99.90;;;;;;5075233;28;20060;-79
2021/03/29 03:23:58;;;;;;;14.43;3.45;;;9.50;99.90;;;;;;5093317;28;20044;-79
2021/03/29 03:26:26;;;;;;;11.95;2.85;;;9.50;99.90;;;;;;5091562;28;20036;-79
2021/03/29 03:28:52;;;;;;;10.52;3.30;;;9.50;99.90;;;;;;5085990;28;20036;-75
2021/03/29 03:31:19;;;;;;;10.13;3.40;;;9.60;99.90;;;;;;5093725;28;20538;-80
2021/03/29 03:33:45;;;;;;;15.25;3.42;;;9.60;99.90;;;;;;5070070;28;20400;-80
2021/03/29 03:36:13;;;;;;;17.83;3.30;;;9.80;99.90;;;;;;5085465;28;20047;-79
2021/03/29 03:38:42;;;;;;;11.60;3.00;;;9.60;99.90;;;;;;5093284;28;20036;-80
2021/03/29 03:41:12;;;;;;;11.65;3.33;;;9.60;99.90;;;;;;5093403;28;20042;-79
2021/03/29 03:43:54;;;;;;;13.75;3.28;;;9.50;99.90;;;;;;5092731;28;20431;-81
2021/03/29 03:46:38;;;;;;;10.60;3.28;;;9.50;99.90;;;;;;5093397;28;20107;-80
2021/03/29 03:49:11;;;;;;;9.38;2.78;;;9.60;99.90;;;;;;5075115;28;20100;-80
2021/03/29 03:51:38;;;;;;;12.80;3.45;;;9.50;99.90;;;;;;5073784;28;20036;-81
2021/03/29 03:54:06;;;;;;;16.92;3.92;;;9.50;99.90;;;;;;5074839;28;20512;-81
2021/03/29 03:56:33;;;;;;;12.30;3.70;;;9.50;99.90;;;;;;5093324;28;20454;-81
2021/03/29 03:58:59;;;;;;;10.13;3.17;;;9.60;99.90;;;;;;5092745;28;20098;-80
2021/03/29 04:01:26;;;;;;;13.25;3.20;;;9.50;99.90;;;;;;5069197;28;20050;-81
2021/03/29 04:03:52;;;;;;;18.38;3.35;;;9.70;99.90;;;;;;5074365;28;20060;-75
2021/03/29 04:06:18;;;;;;;11.23;2.90;;;9.50;99.90;;;;;;5091537;28;20506;-76
2021/03/29 04:08:49;;;;;;;15.27;3.40;;;9.50;99.90;;;;;;5057901;28;20063;-76
2021/03/29 04:11:15;;;;;;;15.70;3.28;;;9.50;99.90;;;;;;5074688;28;20074;-76
2021/03/29 04:13:41;;;;;;;12.25;3.00;;;9.50;99.90;;;;;;5092873;28;20036;-75
2021/03/29 04:16:08;;;;;;;20.33;3.67;;;10.00;99.90;;;;;;5074657;28;20065;-76
2021/03/29 04:18:35;;;;;;;15.88;3.38;;;9.50;99.90;;;;;;5074725;28;20040;-76
2021/03/29 04:21:01;;;;;;;13.50;3.88;;;9.50;99.90;;;;;;5074413;28;20040;-76
2021/03/29 04:23:29;;;;;;;13.32;3.45;;;9.50;99.90;;;;;;5091561;28;20035;-75
2021/03/29 04:25:56;;;;;;;14.68;3.60;;;9.90;99.90;;;;;;5074694;28;20476;-76
2021/03/29 04:28:22;;;;;;;12.35;3.40;;;9.60;99.90;;;;;;5074704;28;20135;-75
2021/03/29 04:30:48;;;;;;;11.52;3.38;;;9.50;99.90;;;;;;5092454;28;20051;-75
2021/03/29 04:33:15;;;;;;;14.20;3.25;;;10.00;99.90;;;;;;5092447;28;20463;-75
2021/03/29 04:35:41;;;;;;;11.45;3.35;;;9.50;99.90;;;;;;5092220;28;20069;-75
2021/03/29 04:38:07;;;;;;;11.77;3.30;;;9.50;99.90;;;;;;5092109;28;20106;-75
2021/03/29 04:40:33;;;;;;;17.55;3.80;;;9.50;99.90;;;;;;5085114;28;20032;-75
2021/03/29 04:42:59;;;;;;;17.00;3.70;;;9.90;99.90;;;;;;5091796;28;20046;-75
2021/03/29 04:45:28;;;;;;;17.60;3.65;;;9.50;99.90;;;;;;5092410;28;20395;-75
2021/03/29 04:47:54;;;;;;;13.82;3.88;;;9.70;99.90;;;;;;5092217;28;20043;-74
2021/03/29 04:50:22;;;;;;;12.18;3.65;;;9.50;99.90;;;;;;5073983;28;20056;-75
2021/03/29 04:52:51;;;;;;;12.18;3.22;;;9.50;99.90;;;;;;5066284;28;20044;-75
2021/03/29 04:55:17;;;;;;;15.70;3.50;;;9.40;99.90;;;;;;5084299;28;20044;-75
2021/03/29 04:57:44;;;;;;;15.63;4.05;;;9.50;99.90;;;;;;5092435;28;20032;-75
2021/03/29 05:00:11;;;;;;;10.50;3.25;;;9.70;99.90;;;;;;5092250;28;20036;-75
2021/03/29 05:02:37;;;;;;;18.92;3.65;;;9.50;99.90;;;;;;5091323;28;20032;-75
2021/03/29 05:05:04;;;;;;;15.80;3.80;;;9.40;99.90;;;;;;5074256;28;20040;-80
2021/03/29 05:07:33;;;;;;;13.15;4.03;;;9.40;99.90;;;;;;5092091;28;20028;-79
2021/03/29 05:09:58;;;;;;;14.68;4.05;;;9.70;99.90;;;;;;5086892;28;20024;-79
2021/03/29 05:12:24;;;;;;;20.20;4.20;;;9.40;99.90;;;;;;5087387;28;20396;-79
2021/03/29 05:14:51;;;;;;;12.88;4.07;;;9.40;99.90;;;;;;5092432;28;20403;-78
2021/03/29 05:17:18;;;;;;;16.92;4.00;;;9.70;99.90;;;;;;5096015;28;20036;-78
2021/03/29 05:19:45;;;;;;;14.52;4.10;;;9.40;99.90;;;;;;5060366;28;20484;-78
2021/03/29 05:22:11;;;;;;;16.80;3.78;;;9.40;99.90;;;;;;5060730;28;20055;-78
2021/03/29 05:24:37;;;;;;;16.83;3.70;;;9.30;99.90;;;;;;5094474;28;20032;-78
2021/03/29 05:27:05;;;;;;;16.65;3.50;;;9.40;99.90;;;;;;5085798;28;20044;-78
2021/03/29 05:29:40;;;;;;;15.10;3.88;;;9.30;99.90;;;;;;5095603;28;20044;-78
2021/03/29 05:32:27;;;;;;;13.38;3.67;;;9.40;99.90;;;;;;5077723;28;20411;-74
2021/03/29 05:34:55;;;;;;;15.15;4.13;;;9.90;99.90;;;;;;5095460;28;20040;-74
2021/03/29 05:37:22;;;;;;;17.88;4.20;;;9.40;99.90;;;;;;5095406;28;20039;-76
2021/03/29 05:39:54;;;;;;;18.63;3.97;;;9.40;99.90;;;;;;5095308;28;20028;-74
2021/03/29 05:42:21;;;;;;;16.35;4.35;;;9.50;99.90;;;;;;5059890;28;20047;-75
2021/03/29 05:44:50;;;;;;;14.27;3.72;;;10.10;99.90;;;;;;5095288;28;20056;-75
2021/03/29 05:47:17;;;;;;;14.98;4.03;;;9.50;99.90;;;;;;5077456;28;20119;-75
2021/03/29 05:49:43;;;;;;;12.23;3.83;;;9.50;99.90;;;;;;5077315;28;20059;-74
2021/03/29 05:52:10;;;;;;;12.52;3.50;;;9.50;99.90;;;;;;5094343;28;20156;-76
2021/03/29 05:54:40;;;;;;;15.05;3.88;;;9.50;99.90;;;;;;5095390;28;20107;-76
2021/03/29 05:57:10;;;;;;;20.65;4.05;;;9.50;99.90;;;;;;5076692;28;20067;-75
2021/03/29 05:59:41;;;;;;;21.70;4.60;;;9.50;99.90;;;;;;5091872;28;20032;-76
2021/03/29 06:02:09;;;;;;;17.50;4.28;;;9.50;99.90;;;;;;5090685;28;20042;-76
2021/03/29 06:04:44;;;;;;;15.57;3.42;;;9.60;99.90;;;;;;5090149;28;20063;-76
2021/03/29 06:07:31;;;;;;;13.50;3.28;;;9.50;99.90;;;;;;5075925;28;20060;-76
2021/03/29 06:10:08;;;;;;;11.13;3.10;;;9.50;99.90;;;;;;5076398;28;20048;-76
2021/03/29 06:12:50;;;;;;;13.50;3.80;;;9.50;99.90;;;;;;5076605;28;20036;-73
2021/03/29 06:15:16;;;;;;;15.13;3.20;;;9.40;99.90;;;;;;5072079;28;20473;-73
2021/03/29 06:17:42;;;;;;;15.20;3.92;;;9.50;99.90;;;;;;5092758;28;20110;-76
2021/03/29 06:20:08;;;;;;;15.57;4.00;;;9.50;99.90;;;;;;5072089;28;20060;-72
2021/03/29 06:22:43;;;;;;;16.55;3.72;;;9.50;99.90;;;;;;5094278;28;20036;-72
2021/03/29 06:25:17;;;;;;;18.92;4.28;;;9.50;99.90;;;;;;5076361;28;20058;-73
2021/03/29 06:27:44;;;;;;;16.10;4.22;;;9.50;99.90;;;;;;5075947;28;20028;-81
2021/03/29 06:30:37;;;;;;;16.48;3.67;;;9.50;99.90;;;;;;5076088;28;20058;-76
2021/03/29 06:33:14;;;;;;;11.25;3.60;;;9.50;99.90;;;;;;5089496;28;20082;-75
2021/03/29 06:35:46;;;;;;;15.57;4.05;;;9.50;99.90;;;;;;5076733;28;20032;-76
2021/03/29 06:38:22;;;;;;;17.08;4.07;;;9.50;99.90;;;;;;5094173;28;20032;-75
2021/03/29 06:40:51;;;;;;;15.52;3.70;;;9.60;99.90;;;;;;5094491;28;20036;-75
2021/03/29 06:43:23;;;;;;;20.60;4.40;;;9.60;99.90;;;;;;5094251;28;20048;-75
2021/03/29 06:45:51;;;;;;;21.77;4.47;;;9.60;99.90;;;;;;5094085;28;20043;-77
2021/03/29 06:48:30;;;;;;;16.55;3.83;;;9.60;99.90;;;;;;5091054;28;20066;-73
2021/03/29 06:51:14;;;;;;;18.08;4.45;;;9.70;99.90;;;;;;5093803;28;20094;-76
2021/03/29 06:53:51;;;;;;;16.05;3.80;;;9.70;99.90;;;;;;5078296;28;20036;-75
2021/03/29 06:56:40;;;;;;;16.25;4.20;;;9.70;99.90;;;;;;5084503;28;20032;-76
2021/03/29 06:59:24;;;;;;;16.42;4.22;;;9.80;99.90;;;;;;5086248;28;20040;-71
2021/03/29 07:01:52;;;;;;;20.60;4.35;;;9.80;99.90;;;;;;5069032;28;20046;-71
2021/03/29 07:04:26;;;;;;;20.75;4.45;;;9.80;99.90;;;;;;5089404;28;20205;-72
2021/03/29 07:06:53;;;;;;;16.77;4.57;;;9.80;99.90;;;;;;5068766;28;20028;-71
2021/03/29 07:09:20;;;;;;;21.13;4.30;;;9.90;99.90;;;;;;5089863;28;20032;-71
2021/03/29 07:11:47;;;;;;;18.25;4.55;;;9.90;99.90;;;;;;5090420;28;20047;-71
2021/03/29 07:14:18;;;;;;;23.10;5.05;;;10.00;99.90;;;;;;5071337;28;20038;-71
2021/03/29 07:16:45;;;;;;;15.57;4.05;;;9.90;99.90;;;;;;5088982;28;20046;-72
2021/03/29 07:19:21;;;;;;;19.90;3.92;;;10.10;99.90;;;;;;5088578;28;20396;-71
2021/03/29 07:21:48;;;;;;;15.98;4.40;;;9.90;99.90;;;;;;5089915;28;20486;-72
2021/03/29 07:24:15;;;;;;;20.55;4.03;;;10.10;99.90;;;;;;5072676;28;20040;-71
2021/03/29 07:27:01;;;;;;;19.83;4.53;;;10.10;99.90;;;;;;5071676;28;20067;-71
2021/03/29 07:29:29;;;;;;;15.48;4.22;;;10.10;99.90;;;;;;5090393;28;20032;-71
2021/03/29 07:32:03;;;;;;;17.52;4.18;;;10.30;99.90;;;;;;5092610;28;20028;-72
2021/03/29 07:34:49;;;;;;;16.20;3.97;;;10.20;99.90;;;;;;5090755;28;20036;-70
2021/03/29 07:37:37;;;;;;;18.15;5.07;;;10.30;99.90;;;;;;5072374;28;20039;-71
2021/03/29 07:40:07;;;;;;;21.33;4.35;;;10.30;99.90;;;;;;5061954;28;20048;-71
2021/03/29 07:42:40;;;;;;;20.13;4.25;;;10.40;99.90;;;;;;5091943;28;20040;-71
2021/03/29 07:45:35;;;;;;;22.80;6.10;;;10.40;99.90;;;;;;5073505;28;20040;-72
2021/03/29 07:48:02;;;;;;;17.40;4.20;;;10.50;99.90;;;;;;5091625;28;20036;-81
2021/03/29 07:50:27;;;;;;;22.73;4.15;;;10.50;99.90;;;;;;5091104;28;20298;-83
2021/03/29 07:52:59;;;;;;;18.63;4.18;;;10.70;99.90;;;;;;5089721;28;20151;-80
2021/03/29 07:55:42;;;;;;;21.02;4.63;;;10.60;99.90;;;;;;5089090;28;20071;-78
2021/03/29 07:58:14;;;;;;;25.75;5.30;;;10.70;99.90;;;;;;5089940;28;20036;-77
2021/03/29 08:01:05;;;;;;;28.70;5.35;;;10.80;99.90;;;;;;5071971;28;20036;-77
2021/03/29 08:03:31;;;;;;;24.60;5.32;;;10.80;99.90;;;;;;5089080;28;20046;-77
2021/03/29 08:06:07;;;;;;;33.17;5.82;;;10.80;99.90;;;;;;5067466;28;20177;-77
2021/03/29 08:08:55;;;;;;;20.10;4.57;;;10.90;99.90;;;;;;5085848;28;20035;-78
2021/03/29 08:11:22;;;;;;;20.77;4.75;;;10.90;99.90;;;;;;5087964;28;20032;-77
2021/03/29 08:13:53;;;;;;;19.02;4.72;;;11.00;99.90;;;;;;5071452;28;20551;-78
2021/03/29 08:16:25;;;;;;;26.23;5.68;;;11.00;99.90;;;;;;5070912;28;20036;-78
2021/03/29 08:19:25;;;;;;;22.83;4.57;;;11.00;99.90;;;;;;5073987;28;20157;-77
2021/03/29 08:21:58;;;;;;;15.13;4.30;;;10.90;99.90;;;;;;5088278;28;20028;-78
2021/03/29 08:24:25;;;;;;;19.85;4.43;;;11.10;99.90;;;;;;5088943;28;20044;-78
2021/03/29 08:27:07;;;;;;;20.98;4.72;;;11.60;99.90;;;;;;5069390;28;20051;-78
2021/03/29 08:29:40;;;;;;;29.05;4.70;;;11.20;99.90;;;;;;5071087;28;20123;-77
2021/03/29 08:32:10;;;;;;;15.48;4.72;;;11.30;99.90;;;;;;5070676;28;20043;-78
2021/03/29 08:34:54;;;;;;;19.65;5.30;;;11.30;99.90;;;;;;5088902;28;20097;-78
2021/03/29 08:37:26;;;;;;;18.67;4.80;;;11.30;99.90;;;;;;5086916;28;20040;-77
2021/03/29 08:39:55;;;;;;;18.98;4.47;;;11.30;99.90;;;;;;5086149;28;20050;-77
2021/03/29 08:42:24;;;;;;;24.83;5.22;;;11.40;99.90;;;;;;5087134;28;20487;-77
2021/03/29 08:44:52;;;;;;;29.92;5.40;;;11.40;99.90;;;;;;5088538;28;20028;-77
2021/03/29 08:47:23;;;;;;;22.48;4.93;;;11.40;99.90;;;;;;5087124;28;20038;-78
2021/03/29 08:49:52;;;;;;;21.98;4.90;;;11.40;99.90;;;;;;5071843;28;20036;-77
2021/03/29 08:52:19;;;;;;;24.05;4.97;;;11.50;99.90;;;;;;5092964;28;20036;-78
2021/03/29 08:54:54;;;;;;;28.27;5.18;;;11.60;99.90;;;;;;5088866;28;20151;-78
2021/03/29 08:57:29;;;;;;;20.20;4.50;;;11.70;99.90;;;;;;5089275;28;20110;-78
2021/03/29 09:00:26;;;;;;;24.77;5.85;;;11.70;99.90;;;;;;5091827;28;20047;-78
2021/03/29 09:02:53;;;;;;;23.95;5.35;;;11.80;99.90;;;;;;5074265;28;20055;-78
2021/03/29 09:05:22;;;;;;;23.75;6.10;;;11.90;99.90;;;;;;5070824;28;20526;-78
2021/03/29 09:07:53;;;;;;;25.55;5.03;;;11.90;99.90;;;;;;5089696;28;20036;-78
2021/03/29 09:10:36;;;;;;;21.40;4.85;;;12.50;99.90;;;;;;5091835;28;20047;-78
2021/03/29 09:13:14;;;;;;;25.70;5.80;;;12.20;99.90;;;;;;5090655;28;20063;-76
2021/03/29 09:15:52;;;;;;;21.70;5.85;;;12.10;99.90;;;;;;5092720;28;20063;-76
2021/03/29 09:18:29;;;;;;;17.27;4.95;;;12.10;99.90;;;;;;5096044;28;20082;-76
2021/03/29 09:20:55;;;;;;;23.38;5.82;;;12.10;99.90;;;;;;5094572;28;20028;-77
2021/03/29 09:23:30;;;;;;;23.33;5.25;;;12.20;99.90;;;;;;5095943;28;20067;-75
2021/03/29 09:25:56;;;;;;;23.77;5.53;;;12.20;99.90;;;;;;5077838;28;20048;-76
2021/03/29 09:30:57;;;;;;;24.48;5.85;;;12.20;99.90;;;;;;5075231;28;20054;-80
2021/03/29 09:33:24;;;;;;;26.60;5.82;;;12.30;99.80;;;;;;5090543;28;20166;-79
2021/03/29 09:35:51;;;;;;;21.23;6.72;;;12.30;99.80;;;;;;5075714;28;20043;-82
2021/03/29 09:38:36;;;;;;;24.98;6.07;;;12.50;99.80;;;;;;5072291;28;20040;-80
2021/03/29 09:41:17;;;;;;;25.90;5.35;;;12.50;99.70;;;;;;5076180;28;20047;-81
2021/03/29 09:43:47;;;;;;;23.58;5.63;;;12.50;99.50;;;;;;5088547;28;20480;-78
2021/03/29 09:46:29;;;;;;;26.52;6.00;;;12.50;99.50;;;;;;5091602;28;20086;-78
2021/03/29 09:49:10;;;;;;;19.50;5.65;;;13.10;99.60;;;;;;5073190;28;20033;-82
2021/03/29 09:51:47;;;;;;;21.90;5.72;;;12.50;99.30;;;;;;5094412;28;20109;-79
2021/03/29 09:54:23;;;;;;;17.50;6.20;;;12.50;99.50;;;;;;5057891;28;20127;-78
2021/03/29 09:57:16;;;;;;;25.35;6.30;;;12.50;99.50;;;;;;5074560;28;20142;-76
2021/03/29 09:59:44;;;;;;;25.27;6.10;;;12.50;99.40;;;;;;5094117;28;20059;-80
2021/03/29 10:02:34;;;;;;;22.00;6.55;;;13.00;99.60;;;;;;5093645;28;20051;-86
2021/03/29 10:05:07;;;;;;;20.80;6.30;;;12.40;99.50;;;;;;5085764;28;20047;-86
2021/03/29 10:07:34;;;;;;;27.27;6.88;;;12.40;99.70;;;;;;5043916;28;20039;-86
2021/03/29 10:10:04;;;;;;;24.02;6.72;;;12.40;99.50;;;;;;5095563;28;20039;-76
2021/03/29 10:12:32;;;;;;;23.42;7.28;;;12.40;99.60;;;;;;5091713;28;20376;-85
2021/03/29 10:15:12;;;;;;;27.42;6.90;;;12.40;99.60;;;;;;5068010;28;20107;-86
2021/03/29 10:17:41;;;;;;;24.17;6.75;;;12.40;99.60;;;;;;5044589;28;20468;-86
2021/03/29 10:20:17;;;;;;;23.88;6.22;;;12.50;99.70;;;;;;5094875;28;20040;-86
2021/03/29 10:22:48;;;;;;;25.33;6.72;;;12.60;99.60;;;;;;5076611;28;20047;-75
2021/03/29 10:25:34;;;;;;;24.17;6.55;;;12.80;99.60;;;;;;5094889;28;20043;-86
2021/03/29 10:28:01;;;;;;;28.35;7.60;;;12.90;99.00;;;;;;5094941;28;20032;-86
2021/03/29 10:30:31;;;;;;;25.45;7.03;;;12.90;99.10;;;;;;5075687;28;20115;-76
2021/03/29 10:33:00;;;;;;;26.88;7.32;;;13.30;99.10;;;;;;5073971;28;20044;-75
2021/03/29 10:35:28;;;;;;;20.60;6.70;;;12.90;98.90;;;;;;5076629;28;20036;-86
2021/03/29 10:37:57;;;;;;;23.85;7.03;;;12.90;98.90;;;;;;5091397;28;20036;-86
2021/03/29 10:40:23;;;;;;;28.00;7.43;;;13.00;98.90;;;;;;5069672;28;20043;-76
2021/03/29 10:42:50;;;;;;;26.50;7.32;;;13.00;99.00;;;;;;5076181;28;20519;-76
2021/03/29 10:45:17;;;;;;;24.90;7.47;;;13.00;98.80;;;;;;5091538;28;20040;-81
2021/03/29 10:47:47;;;;;;;28.10;8.40;;;13.00;98.80;;;;;;5075504;28;20056;-75
2021/03/29 10:50:19;;;;;;;24.98;7.18;;;13.00;98.90;;;;;;5074612;28;20494;-85
2021/03/29 10:52:45;;;;;;;27.08;8.00;;;12.90;98.90;;;;;;5073448;28;20037;-82
2021/03/29 10:55:11;;;;;;;24.40;7.55;;;12.90;99.00;;;;;;5059210;28;20384;-79
2021/03/29 10:57:37;;;;;;;23.35;6.97;;;13.00;99.00;;;;;;5089540;28;20490;-78
2021/03/29 11:00:06;;;;;;;25.63;7.68;;;13.00;99.00;;;;;;5051029;28;20065;-77
2021/03/29 11:02:35;;;;;;;23.60;7.40;;;13.10;99.00;;;;;;5086806;28;20039;-74
2021/03/29 11:05:07;;;;;;;26.58;6.97;;;13.20;99.00;;;;;;5055984;28;20484;-74
2021/03/29 11:07:36;;;;;;;26.42;7.70;;;13.30;98.80;;;;;;5087702;28;20034;-76
2021/03/29 11:10:07;;;;;;;20.70;6.75;;;13.30;98.70;;;;;;5070335;28;20042;-74
2021/03/29 11:12:33;;;;;;;21.77;7.18;;;13.40;98.60;;;;;;5071688;28;20488;-74
2021/03/29 11:14:59;;;;;;;28.58;7.82;;;13.90;98.50;;;;;;5070471;28;21474;-74
2021/03/29 11:17:28;;;;;;;21.85;7.70;;;13.50;98.30;;;;;;5071805;28;20043;-74
2021/03/29 11:19:54;;;;;;;22.48;6.90;;;13.90;98.30;;;;;;5069333;28;20502;-74
2021/03/29 11:22:20;;;;;;;25.35;7.05;;;13.50;98.20;;;;;;5089229;28;20093;-74
2021/03/29 11:24:48;;;;;;;24.67;8.15;;;13.60;98.30;;;;;;5070345;28;20445;-74
2021/03/29 11:27:14;;;;;;;24.33;8.50;;;13.70;98.30;;;;;;5070373;28;20035;-74
2021/03/29 11:29:40;;;;;;;21.80;7.53;;;13.80;98.20;;;;;;5068773;28;20126;-74
2021/03/29 11:32:12;;;;;;;23.35;7.72;;;13.80;97.90;;;;;;5085804;28;20057;-74
2021/03/29 11:34:40;;;;;;;22.00;7.50;;;13.80;97.90;;;;;;5086402;28;20044;-74
2021/03/29 11:37:06;;;;;;;26.85;8.07;;;13.80;97.90;;;;;;5086580;28;20047;-75
2021/03/29 11:39:32;;;;;;;26.30;7.85;;;13.80;97.70;;;;;;5088417;28;20434;-74
2021/03/29 11:42:00;;;;;;;23.27;7.53;;;13.80;97.60;;;;;;5088519;28;20087;-74
2021/03/29 11:44:26;;;;;;;23.75;7.50;;;13.80;97.60;;;;;;5087754;28;20468;-74
2021/03/29 11:46:56;;;;;;;24.17;7.38;;;13.80;97.70;;;;;;5069321;28;20089;-74
2021/03/29 11:49:25;;;;;;;24.63;8.07;;;13.80;97.60;;;;;;5068492;28;20063;-77
2021/03/29 11:51:53;;;;;;;27.60;8.18;;;13.80;97.60;;;;;;5061880;28;20463;-77
2021/03/29 11:54:21;;;;;;;24.90;7.45;;;13.80;97.70;;;;;;5063095;28;20068;-77
2021/03/29 11:56:47;;;;;;;17.88;6.55;;;13.90;97.60;;;;;;5064332;28;20485;-74
2021/03/29 11:59:13;;;;;;;24.23;7.18;;;13.90;97.60;;;;;;5063290;28;20530;-77
2021/03/29 12:01:50;;;;;;;18.83;7.35;;;13.90;97.50;;;;;;5038911;28;20119;-77
2021/03/29 12:06:54;;;;;;;23.90;6.78;;;14.00;97.60;;;;;;5068227;28;20032;-74
2021/03/29 12:09:38;;;;;;;23.63;6.32;;;14.00;97.50;;;;;;5034877;28;20126;-74
2021/03/29 12:12:05;;;;;;;23.35;6.15;;;14.10;97.40;;;;;;5067895;28;20040;-74
2021/03/29 12:14:33;;;;;;;25.92;7.13;;;14.20;97.30;;;;;;5066894;28;20148;-74
2021/03/29 12:17:01;;;;;;;26.08;7.30;;;14.20;97.10;;;;;;5049331;28;20051;-77
2021/03/29 12:19:28;;;;;;;26.17;6.80;;;14.20;97.00;;;;;;5066927;28;20063;-77
2021/03/29 12:21:57;;;;;;;22.77;7.28;;;14.40;96.70;;;;;;5066950;28;20045;-77
2021/03/29 12:24:27;;;;;;;20.35;6.50;;;14.20;97.20;;;;;;5065579;28;20136;-77
2021/03/29 12:26:53;;;;;;;28.85;6.88;;;14.30;96.90;;;;;;5068723;28;20039;-77
2021/03/29 12:29:36;;;;;;;19.85;6.43;;;14.40;97.00;;;;;;5067430;28;20697;-78
2021/03/29 12:32:04;;;;;;;22.65;6.57;;;14.50;96.70;;;;;;5059074;28;20033;-80
2021/03/29 12:34:30;;;;;;;21.00;6.70;;;14.40;96.40;;;;;;5067147;28;20052;-80
2021/03/29 12:36:56;;;;;;;20.95;6.60;;;14.40;96.50;;;;;;5050800;28;20032;-79
2021/03/29 12:39:32;;;;;;;20.70;6.63;;;14.40;96.60;;;;;;5068910;28;20091;-80
2021/03/29 12:41:59;;;;;;;20.48;6.35;;;14.40;96.70;;;;;;5052969;28;20032;-80
2021/03/29 12:44:27;;;;;;;28.05;7.28;;;14.30;96.40;;;;;;5050592;28;20031;-77
2021/03/29 12:46:58;;;;;;;25.55;6.90;;;14.30;96.60;;;;;;5068811;28;20043;-77
2021/03/29 12:49:29;;;;;;;22.08;6.63;;;14.30;96.90;;;;;;5034041;28;20098;-77
2021/03/29 12:51:58;;;;;;;22.35;6.25;;;14.30;97.00;;;;;;5048095;28;20045;-78
2021/03/29 12:54:29;;;;;;;21.00;6.10;;;14.40;97.00;;;;;;5066170;28;20043;-77
2021/03/29 12:56:56;;;;;;;20.50;7.10;;;14.40;96.70;;;;;;5066772;28;20037;-77
2021/03/29 12:59:24;;;;;;;20.55;6.75;;;14.40;96.70;;;;;;5062216;28;20428;-77
2021/03/29 13:01:50;;;;;;;20.52;6.80;;;14.30;96.70;;;;;;5041246;28;20051;-75
2021/03/29 13:04:22;;;;;;;20.60;6.50;;;14.40;96.90;;;;;;5063767;28;20040;-78
2021/03/29 13:09:47;;;;;;;73.13;7.85;;;14.40;96.80;;;;;;5066231;28;20372;-78
2021/03/29 13:12:17;;;;;;;28.80;7.03;;;14.70;96.70;;;;;;5018990;28;20056;-74
2021/03/29 13:14:52;;;;;;;26.42;6.45;;;14.60;96.50;;;;;;5059795;28;20400;-74
2021/03/29 13:17:18;;;;;;;21.63;6.68;;;14.60;96.20;;;;;;5066862;28;20613;-74
2021/03/29 13:19:44;;;;;;;27.35;7.00;;;14.60;96.30;;;;;;5066187;28;20047;-74
2021/03/29 13:22:09;;;;;;;22.10;6.45;;;14.70;96.30;;;;;;5035384;28;20032;-74
2021/03/29 13:24:38;;;;;;;29.33;7.28;;;14.60;96.40;;;;;;5033040;28;20040;-74
2021/03/29 13:27:04;;;;;;;21.52;6.68;;;14.60;96.40;;;;;;5040209;28;20063;-74
2021/03/29 13:29:30;;;;;;;27.95;7.00;;;14.70;96.60;;;;;;5062226;28;20102;-74
2021/03/29 13:31:56;;;;;;;27.08;7.30;;;14.70;96.40;;;;;;5037280;28;20032;-74
2021/03/29 13:34:23;;;;;;;25.70;7.50;;;14.70;96.20;;;;;;5023513;28;20049;-75
2021/03/29 13:36:51;;;;;;;23.17;6.35;;;14.70;96.20;;;;;;5034674;28;20086;-75
2021/03/29 13:39:17;;;;;;;23.55;6.40;;;14.70;96.20;;;;;;5038632;28;20416;-78
2021/03/29 13:41:43;;;;;;;24.55;7.20;;;14.70;96.20;;;;;;5038970;28;20032;-78
2021/03/29 13:44:11;;;;;;;29.35;7.35;;;14.80;95.80;;;;;;5042848;28;20048;-77
2021/03/29 13:46:37;;;;;;;26.08;7.55;;;14.80;95.90;;;;;;5042504;28;20024;-77
2021/03/29 13:49:04;;;;;;;26.50;7.00;;;14.80;95.70;;;;;;5069137;28;20036;-77
2021/03/29 13:51:30;;;;;;;26.95;7.30;;;14.80;95.70;;;;;;5043640;28;20044;-76
2021/03/29 13:54:07;;;;;;;30.48;7.20;;;14.80;95.60;;;;;;5052999;28;20036;-75
2021/03/29 13:56:34;;;;;;;26.60;6.53;;;14.90;95.90;;;;;;5052240;28;20448;-76
2021/03/29 13:59:01;;;;;;;24.75;7.47;;;14.90;95.70;;;;;;5068000;28;20101;-75
2021/03/29 14:01:31;;;;;;;20.70;6.20;;;15.00;95.40;;;;;;5034513;28;20496;-75
2021/03/29 14:03:59;;;;;;;21.42;6.53;;;14.90;95.60;;;;;;5070562;28;20055;-75
2021/03/29 14:06:27;;;;;;;25.48;6.38;;;15.00;95.30;;;;;;5052664;28;20039;-76
2021/03/29 14:08:53;;;;;;;25.52;6.80;;;15.00;95.30;;;;;;5052033;28;20033;-76
2021/03/29 14:11:24;;;;;;;18.30;6.15;;;15.10;95.40;;;;;;5069955;28;20032;-75
2021/03/29 14:13:51;;;;;;;25.48;6.13;;;15.00;95.20;;;;;;5070248;28;20033;-76
2021/03/29 14:16:19;;;;;;;19.20;5.80;;;15.00;95.40;;;;;;5052357;28;20117;-74
2021/03/29 14:18:46;;;;;;;22.05;6.47;;;15.10;95.80;;;;;;5053091;28;20564;-74
2021/03/29 14:21:16;;;;;;;20.70;6.80;;;15.10;95.80;;;;;;5068812;28;20033;-75
2021/03/29 14:23:42;;;;;;;28.45;6.75;;;15.20;95.30;;;;;;5070093;28;20582;-76